createdAt,value
2023-05-24T00:02:21.518Z,10.13
2023-05-24T00:04:49.672Z,9.77
2023-05-24T00:07:16.784Z,10.17
2023-05-24T00:09:43.732Z,10.05
2023-05-24T00:12:11.120Z,9.98
2023-05-24T00:14:38.092Z,10.08
2023-05-24T00:17:05.269Z,10.16
2023-05-24T00:19:32.300Z,10.19
2023-05-24T00:21:59.621Z,9.85
2023-05-24T00:24:26.519Z,9.76
2023-05-24T00:26:53.436Z,9.88
2023-05-24T00:29:20.728Z,9.72
2023-05-24T00:31:47.704Z,9.61
2023-05-24T00:34:14.706Z,9.48
2023-05-24T00:36:41.596Z,9.50
2023-05-24T00:39:08.973Z,9.58
2023-05-24T00:41:35.868Z,9.68
2023-05-24T00:44:02.757Z,9.60
2023-05-24T00:46:32.558Z,9.29
2023-05-24T00:49:01.049Z,9.47
2023-05-24T00:51:28.548Z,9.58
2023-05-24T00:53:56.225Z,9.42
2023-05-24T00:56:23.620Z,9.72
2023-05-24T00:58:54.961Z,9.74
2023-05-24T01:01:26.153Z,9.63
2023-05-24T01:03:54.756Z,9.67
2023-05-24T01:06:22.136Z,9.89
2023-05-24T01:09:14.321Z,9.76
2023-05-24T01:12:03.011Z,9.89
2023-05-24T01:14:58.396Z,9.88
2023-05-24T01:17:38.317Z,9.96
2023-05-24T01:20:10.454Z,9.78
2023-05-24T01:22:46.533Z,9.66
2023-05-24T01:25:28.186Z,9.59
2023-05-24T01:27:55.983Z,9.75
2023-05-24T01:30:24.711Z,9.89
2023-05-24T01:32:51.965Z,9.56
2023-05-24T01:35:18.945Z,9.51
2023-05-24T01:37:45.914Z,9.73
2023-05-24T01:40:13.354Z,9.60
2023-05-24T01:43:13.733Z,9.55
2023-05-24T01:46:05.085Z,9.43
2023-05-24T01:48:42.929Z,9.35
2023-05-24T01:51:16.055Z,9.29
2023-05-24T01:53:47.757Z,9.41
2023-05-24T01:56:17.589Z,9.43
2023-05-24T01:58:46.944Z,9.41
2023-05-24T02:01:14.515Z,9.23
2023-05-24T02:03:41.839Z,9.30
2023-05-24T02:06:08.833Z,9.24
2023-05-24T02:08:35.835Z,9.53
2023-05-24T02:11:02.884Z,9.38
2023-05-24T02:13:29.778Z,9.33
2023-05-24T02:15:56.726Z,9.25
2023-05-24T02:18:25.920Z,8.88
2023-05-24T02:20:52.867Z,8.94
2023-05-24T02:23:19.726Z,9.30
2023-05-24T02:25:46.704Z,9.24
2023-05-24T02:28:13.643Z,9.09
2023-05-24T02:30:40.933Z,8.92
2023-05-24T02:33:08.117Z,9.06
2023-05-24T02:35:35.198Z,9.10
2023-05-24T02:38:03.982Z,8.97
2023-05-24T02:40:30.822Z,8.93
2023-05-24T02:42:57.803Z,8.85
2023-05-24T02:45:24.710Z,9.04
2023-05-24T02:47:51.622Z,8.71
2023-05-24T02:50:18.595Z,8.73
2023-05-24T02:52:45.557Z,8.86
2023-05-24T02:55:12.587Z,9.06
2023-05-24T02:57:39.473Z,9.22
2023-05-24T03:00:11.356Z,8.74
2023-05-24T03:02:41.351Z,8.78
2023-05-24T03:05:08.903Z,8.75
2023-05-24T03:07:35.969Z,9.01
2023-05-24T03:10:02.983Z,8.68
2023-05-24T03:12:29.922Z,8.71
2023-05-24T03:14:56.882Z,8.69
2023-05-24T03:17:23.994Z,8.43
2023-05-24T03:19:52.736Z,8.56
2023-05-24T03:22:20.068Z,8.54
2023-05-24T03:24:48.954Z,8.47
2023-05-24T03:27:16.517Z,8.46
2023-05-24T03:29:43.369Z,8.27
2023-05-24T03:32:10.696Z,8.35
2023-05-24T03:34:37.943Z,8.46
2023-05-24T03:37:05.213Z,8.56
2023-05-24T03:39:32.122Z,8.38
2023-05-24T03:42:15.622Z,8.38
2023-05-24T03:44:42.571Z,8.23
2023-05-24T03:47:09.670Z,8.50
2023-05-24T03:49:37.157Z,8.53
2023-05-24T03:52:04.828Z,8.52
2023-05-24T03:54:32.044Z,8.41
2023-05-24T03:56:58.937Z,8.33
2023-05-24T03:59:25.858Z,8.24
2023-05-24T04:01:52.802Z,8.43
2023-05-24T04:04:19.916Z,8.64
2023-05-24T04:06:48.146Z,8.52
2023-05-24T04:09:16.428Z,8.35
2023-05-24T04:11:43.354Z,8.32
2023-05-24T04:14:12.205Z,8.21
2023-05-24T04:16:39.963Z,8.34
2023-05-24T04:19:07.021Z,8.06
2023-05-24T04:21:35.353Z,8.21
2023-05-24T04:24:02.467Z,8.25
2023-05-24T04:26:30.441Z,8.14
2023-05-24T04:28:58.460Z,8.23
2023-05-24T04:31:26.496Z,8.21
2023-05-24T04:33:53.495Z,7.91
2023-05-24T04:36:23.184Z,8.29
2023-05-24T04:38:53.808Z,8.02
2023-05-24T04:41:22.663Z,8.13
2023-05-24T04:43:50.543Z,8.32
2023-05-24T04:46:17.516Z,8.16
2023-05-24T04:48:44.926Z,8.27
2023-05-24T04:51:11.794Z,8.23
2023-05-24T04:53:38.866Z,8.35
2023-05-24T04:56:05.864Z,8.22
2023-05-24T04:58:33.591Z,8.09
2023-05-24T05:01:00.432Z,8.26
2023-05-24T05:03:27.409Z,8.17
2023-05-24T05:05:54.311Z,8.26
2023-05-24T05:08:21.823Z,8.15
2023-05-24T05:10:48.966Z,8.31
2023-05-24T05:13:15.897Z,8.15
2023-05-24T05:15:43.200Z,8.55
2023-05-24T05:18:10.108Z,8.71
2023-05-24T05:20:37.200Z,8.51
2023-05-24T05:23:04.247Z,8.47
2023-05-24T05:25:31.318Z,8.49
2023-05-24T05:27:58.225Z,8.50
2023-05-24T05:30:25.112Z,8.29
2023-05-24T05:32:52.041Z,8.21
2023-05-24T05:35:19.031Z,7.87
2023-05-24T05:37:46.105Z,7.95
2023-05-24T05:40:13.088Z,8.19
2023-05-24T05:42:39.937Z,7.99
2023-05-24T05:45:07.567Z,8.12
2023-05-24T05:47:34.651Z,8.14
2023-05-24T05:50:01.720Z,8.14
2023-05-24T05:52:28.594Z,8.37
2023-05-24T05:54:55.521Z,8.47
2023-05-24T05:57:24.570Z,8.52
2023-05-24T05:59:51.872Z,8.14
2023-05-24T06:02:23.169Z,8.35
2023-05-24T06:04:50.305Z,8.24
2023-05-24T06:07:17.222Z,8.33
2023-05-24T06:09:44.080Z,8.32
2023-05-24T06:12:10.935Z,8.48
2023-05-24T06:14:38.720Z,8.62
2023-05-24T06:17:06.919Z,8.71
2023-05-24T06:19:34.096Z,8.56
2023-05-24T06:22:01.601Z,8.52
2023-05-24T06:24:28.868Z,8.29
2023-05-24T06:26:56.169Z,8.04
2023-05-24T06:29:25.411Z,8.37
2023-05-24T06:31:52.781Z,8.33
2023-05-24T06:34:23.257Z,8.59
2023-05-24T06:36:51.590Z,8.79
2023-05-24T06:39:19.250Z,8.80
2023-05-24T06:41:47.384Z,8.18
2023-05-24T06:44:14.656Z,8.48
2023-05-24T06:46:41.670Z,8.63
2023-05-24T06:49:08.882Z,8.58
2023-05-24T06:51:36.912Z,8.59
2023-05-24T06:54:03.950Z,8.72
2023-05-24T06:56:30.843Z,8.79
2023-05-24T06:58:58.584Z,8.86
2023-05-24T07:01:25.525Z,8.88
2023-05-24T07:03:52.929Z,9.14
2023-05-24T07:06:19.908Z,9.06
2023-05-24T07:08:46.884Z,9.18
2023-05-24T07:11:13.942Z,9.14
2023-05-24T07:13:40.939Z,9.16
2023-05-24T07:16:07.792Z,9.56
2023-05-24T07:18:34.719Z,9.88
2023-05-24T07:21:01.922Z,9.40
2023-05-24T07:23:28.806Z,9.59
2023-05-24T07:25:55.736Z,9.64
2023-05-24T07:28:22.691Z,9.63
2023-05-24T07:30:49.919Z,9.80
2023-05-24T07:33:17.301Z,10.19
2023-05-24T07:35:46.056Z,10.10
2023-05-24T07:38:13.056Z,9.64
2023-05-24T07:40:39.999Z,9.69
2023-05-24T07:43:07.047Z,9.81
2023-05-24T07:45:34.364Z,9.61
2023-05-24T07:48:02.151Z,9.88
2023-05-24T07:50:29.587Z,10.10
2023-05-24T07:52:57.549Z,10.35
2023-05-24T07:55:24.422Z,10.49
2023-05-24T07:57:51.680Z,10.29
2023-05-24T08:00:20.385Z,10.11
2023-05-24T08:02:47.287Z,9.87
2023-05-24T08:05:14.486Z,10.28
2023-05-24T08:07:42.215Z,10.35
2023-05-24T08:10:14.230Z,10.38
2023-05-24T08:12:42.006Z,10.84
2023-05-24T08:15:09.451Z,11.15
2023-05-24T08:17:36.813Z,10.03
2023-05-24T08:20:09.149Z,10.49
2023-05-24T08:22:37.614Z,10.71
2023-05-24T08:25:05.022Z,10.44
2023-05-24T08:27:32.093Z,9.89
2023-05-24T08:29:59.189Z,10.40
2023-05-24T08:32:26.100Z,9.92
2023-05-24T08:35:06.799Z,10.08
2023-05-24T08:37:37.952Z,10.47
2023-05-24T08:40:05.353Z,10.44
2023-05-24T08:42:32.438Z,10.36
2023-05-24T08:45:04.575Z,10.49
2023-05-24T08:47:33.137Z,9.54
2023-05-24T08:50:01.114Z,10.07
2023-05-24T08:52:32.485Z,10.15
2023-05-24T08:55:00.205Z,10.27
2023-05-24T08:57:28.489Z,10.42
2023-05-24T08:59:58.277Z,10.05
2023-05-24T09:02:25.307Z,10.16
2023-05-24T09:04:53.358Z,9.70
2023-05-24T09:07:24.438Z,10.03
2023-05-24T09:10:01.265Z,10.18
2023-05-24T09:12:38.170Z,9.71
2023-05-24T09:15:07.795Z,9.92
2023-05-24T09:17:37.242Z,9.78
2023-05-24T09:20:07.434Z,9.78
2023-05-24T09:22:36.906Z,10.17
2023-05-24T09:25:06.492Z,9.88
2023-05-24T09:27:35.251Z,9.96
2023-05-24T09:30:05.653Z,9.91
2023-05-24T09:32:32.656Z,9.69
2023-05-24T09:35:00.255Z,9.82
2023-05-24T09:37:32.695Z,10.07
2023-05-24T09:40:00.196Z,9.88
2023-05-24T09:42:29.018Z,9.92
2023-05-24T09:45:07.067Z,9.86
2023-05-24T09:47:35.756Z,9.96
2023-05-24T09:50:04.652Z,9.81
2023-05-24T09:52:33.238Z,10.08
2023-05-24T09:55:01.097Z,10.22
2023-05-24T09:57:28.506Z,10.51
2023-05-24T09:59:55.577Z,9.92
2023-05-24T10:02:24.106Z,10.26
2023-05-24T10:05:00.743Z,9.83
2023-05-24T10:07:27.898Z,10.03
2023-05-24T10:09:55.633Z,10.44
2023-05-24T10:12:23.462Z,10.25
2023-05-24T10:14:52.289Z,10.34
2023-05-24T10:17:19.272Z,10.47
2023-05-24T10:19:46.550Z,10.82
2023-05-24T10:22:14.476Z,10.69
2023-05-24T10:24:47.626Z,10.63
2023-05-24T10:27:19.580Z,10.69
2023-05-24T10:29:59.568Z,11.22
2023-05-24T10:32:31.885Z,11.43
2023-05-24T10:35:02.997Z,11.23
2023-05-24T10:37:32.120Z,10.84
2023-05-24T10:40:00.408Z,10.62
2023-05-24T10:42:27.465Z,10.54
2023-05-24T10:44:57.066Z,10.82
2023-05-24T10:47:28.922Z,10.94
2023-05-24T10:49:59.385Z,10.70
2023-05-24T10:52:36.666Z,10.74
2023-05-24T10:55:09.934Z,10.70
2023-05-24T10:57:38.586Z,11.03
2023-05-24T11:03:23.882Z,11.07
2023-05-24T11:05:53.600Z,11.07
2023-05-24T11:08:33.416Z,11.10
2023-05-24T11:13:41.678Z,11.14
2023-05-24T11:16:08.762Z,10.97
2023-05-24T11:18:40.316Z,10.60
2023-05-24T11:21:08.277Z,10.47
2023-05-24T11:23:38.289Z,10.93
2023-05-24T11:33:23.782Z,11.33
2023-05-24T11:35:55.545Z,11.26
2023-05-24T11:38:24.946Z,10.71
2023-05-24T11:40:52.386Z,10.67
2023-05-24T11:43:20.903Z,10.79
2023-05-24T11:45:52.882Z,10.85
2023-05-24T11:48:20.756Z,10.84
2023-05-24T11:50:50.387Z,10.74
2023-05-24T11:53:19.557Z,10.96
2023-05-24T11:55:46.876Z,10.45
2023-05-24T11:58:29.966Z,10.47
2023-05-24T12:00:56.844Z,10.96
2023-05-24T12:03:23.897Z,11.20
2023-05-24T12:05:51.641Z,10.67
2023-05-24T12:08:18.635Z,10.70
2023-05-24T12:10:45.766Z,10.76
2023-05-24T12:13:23.833Z,10.77
2023-05-24T12:15:56.530Z,11.34
2023-05-24T12:18:26.152Z,11.47
2023-05-24T12:20:53.407Z,11.45
2023-05-24T12:23:23.538Z,11.69
2023-05-24T12:25:50.998Z,11.07
2023-05-24T12:28:24.987Z,11.30
2023-05-24T12:30:52.101Z,11.28
2023-05-24T12:33:20.419Z,11.72
2023-05-24T12:35:48.872Z,11.63
2023-05-24T12:38:20.125Z,11.23
2023-05-24T12:40:57.082Z,11.18
2023-05-24T12:43:35.274Z,11.17
2023-05-24T12:46:02.139Z,10.94
2023-05-24T12:48:29.271Z,11.24
2023-05-24T12:50:56.139Z,11.58
2023-05-24T12:53:24.809Z,11.50
2023-05-24T12:55:56.099Z,11.28
2023-05-24T12:58:23.073Z,11.57
2023-05-24T13:00:50.616Z,11.44
2023-05-24T13:03:17.807Z,11.53
2023-05-24T13:05:44.964Z,11.89
2023-05-24T13:08:12.318Z,11.45
2023-05-24T13:10:39.645Z,11.36
2023-05-24T13:13:07.041Z,11.45
2023-05-24T13:15:33.969Z,11.50
2023-05-24T13:18:01.182Z,11.67
2023-05-24T13:20:28.381Z,11.22
2023-05-24T13:22:55.408Z,11.79
2023-05-24T13:25:22.903Z,11.49
2023-05-24T13:27:49.960Z,11.64
2023-05-24T13:30:17.577Z,11.53
2023-05-24T13:32:44.826Z,11.49
2023-05-24T13:35:11.791Z,12.07
2023-05-24T13:37:39.117Z,12.00
2023-05-24T13:40:07.063Z,11.93
2023-05-24T13:42:34.067Z,11.63
2023-05-24T13:45:01.283Z,11.98
2023-05-24T13:47:41.375Z,12.10
2023-05-24T13:50:09.245Z,11.60
2023-05-24T13:52:37.100Z,11.81
2023-05-24T13:55:07.383Z,11.86
2023-05-24T14:00:09.283Z,11.69
2023-05-24T14:02:37.718Z,12.16
2023-05-24T14:05:24.924Z,12.03
2023-05-24T14:07:53.457Z,12.21
2023-05-24T14:10:21.692Z,12.34
2023-05-24T14:12:59.379Z,12.36
2023-05-24T14:15:31.580Z,12.22
2023-05-24T14:17:58.992Z,12.61
2023-05-24T14:20:26.217Z,12.60
2023-05-24T14:22:53.178Z,12.69
2023-05-24T14:25:20.181Z,12.67
2023-05-24T14:27:47.177Z,12.91
2023-05-24T14:30:14.514Z,12.65
2023-05-24T14:32:41.550Z,12.60
2023-05-24T14:35:08.714Z,13.20
2023-05-24T14:37:35.647Z,12.42
2023-05-24T14:40:02.870Z,12.71
2023-05-24T14:42:29.809Z,12.54
2023-05-24T14:44:56.910Z,12.75
2023-05-24T14:47:23.889Z,12.63
2023-05-24T14:49:51.084Z,12.23
2023-05-24T14:52:18.113Z,12.87
2023-05-24T14:54:44.984Z,13.07
2023-05-24T14:57:12.396Z,12.91
2023-05-24T14:59:39.320Z,12.73
2023-05-24T15:02:06.708Z,12.88
2023-05-24T15:04:33.823Z,12.89
2023-05-24T15:07:01.089Z,12.73
2023-05-24T15:09:27.964Z,13.16
2023-05-24T15:11:54.872Z,12.95
2023-05-24T15:14:22.149Z,12.80
2023-05-24T15:16:49.849Z,12.60
2023-05-24T15:19:16.801Z,12.66
2023-05-24T15:21:43.684Z,12.56
2023-05-24T15:24:10.732Z,13.03
2023-05-24T15:26:37.727Z,12.61
2023-05-24T15:29:04.973Z,12.55
2023-05-24T15:31:31.907Z,12.48
2023-05-24T15:33:58.886Z,12.70
2023-05-24T15:36:25.984Z,12.72
2023-05-24T15:38:52.932Z,12.55
2023-05-24T15:41:19.837Z,12.88
2023-05-24T15:43:46.884Z,13.02
2023-05-24T15:46:13.866Z,13.29
2023-05-24T15:48:40.790Z,13.27
2023-05-24T15:53:37.910Z,13.08
2023-05-24T15:56:05.086Z,13.56
2023-05-24T15:58:32.008Z,13.65
2023-05-24T16:00:58.947Z,13.63
2023-05-24T16:03:26.223Z,13.47
2023-05-24T16:05:53.220Z,13.62
2023-05-24T16:08:27.865Z,13.12
2023-05-24T16:10:56.003Z,12.98
2023-05-24T16:13:23.423Z,12.96
2023-05-24T16:15:51.994Z,12.79
2023-05-24T16:18:22.950Z,12.68
2023-05-24T16:20:51.214Z,13.08
2023-05-24T16:23:19.773Z,13.09
2023-05-24T16:25:46.859Z,12.90
2023-05-24T16:28:13.812Z,13.12
2023-05-24T16:30:41.069Z,12.61
2023-05-24T16:33:08.145Z,12.92
2023-05-24T16:35:35.166Z,12.63
2023-05-24T16:38:02.164Z,12.88
2023-05-24T16:40:29.207Z,12.91
2023-05-24T16:42:56.323Z,13.07
2023-05-24T16:45:23.285Z,12.77
2023-05-24T16:47:50.250Z,12.97
2023-05-24T16:50:17.243Z,12.73
2023-05-24T16:52:44.936Z,12.54
2023-05-24T16:55:12.667Z,12.41
2023-05-24T16:57:39.626Z,12.70
2023-05-24T17:00:07.756Z,12.84
2023-05-24T17:02:35.142Z,13.02
2023-05-24T17:05:02.147Z,12.92
2023-05-24T17:07:29.034Z,12.72
2023-05-24T17:09:56.049Z,12.76
2023-05-24T17:12:23.038Z,12.74
2023-05-24T17:14:49.956Z,12.72
2023-05-24T17:17:16.872Z,12.79
2023-05-24T17:19:43.781Z,12.76
2023-05-24T17:22:11.322Z,12.84
2023-05-24T17:24:38.565Z,12.63
2023-05-24T17:27:05.810Z,12.69
2023-05-24T17:29:33.013Z,12.71
2023-05-24T17:31:59.980Z,12.65
2023-05-24T17:34:27.365Z,12.81
2023-05-24T17:40:29.953Z,12.89
2023-05-24T17:42:56.916Z,12.75
2023-05-24T17:45:24.128Z,12.50
2023-05-24T17:47:51.066Z,12.36
2023-05-24T17:50:18.057Z,12.28
2023-05-24T17:52:44.957Z,12.25
2023-05-24T17:55:11.854Z,12.20
2023-05-24T17:57:38.760Z,12.14
2023-05-24T18:00:07.736Z,11.97
2023-05-24T18:02:34.842Z,12.22
2023-05-24T18:05:01.832Z,11.91
2023-05-24T18:07:30.332Z,12.21
2023-05-24T18:10:00.088Z,12.16
2023-05-24T18:12:27.421Z,12.26
2023-05-24T18:14:54.376Z,12.19
2023-05-24T18:17:21.745Z,12.08
2023-05-24T18:19:48.792Z,12.18
2023-05-24T18:22:16.688Z,12.01
2023-05-24T18:24:43.642Z,11.99
2023-05-24T18:27:10.618Z,11.92
2023-05-24T18:29:37.569Z,11.95
2023-05-24T18:32:04.742Z,12.00
2023-05-24T18:34:32.269Z,11.65
2023-05-24T18:36:59.431Z,11.62
2023-05-24T18:39:26.457Z,11.64
2023-05-24T18:41:53.383Z,11.58
2023-05-24T18:44:20.353Z,11.55
2023-05-24T18:46:47.407Z,11.54
2023-05-24T18:49:14.646Z,11.48
2023-05-24T18:51:41.606Z,11.43
2023-05-24T18:54:09.299Z,11.52
2023-05-24T18:56:36.172Z,11.20
2023-05-24T18:59:03.123Z,11.10
2023-05-24T19:01:30.159Z,11.08
2023-05-24T19:03:57.118Z,11.05
2023-05-24T19:06:24.165Z,11.06
2023-05-24T19:08:51.401Z,10.97
2023-05-24T19:11:18.333Z,10.63
2023-05-24T19:13:45.249Z,10.51
2023-05-24T19:16:17.912Z,10.15
2023-05-24T19:18:45.299Z,10.16
2023-05-24T19:21:12.737Z,10.14
2023-05-24T19:23:40.905Z,10.11
2023-05-24T19:26:07.890Z,10.22
2023-05-24T19:28:37.979Z,10.24
2023-05-24T19:31:05.144Z,10.21
2023-05-24T19:33:32.172Z,10.03
2023-05-24T19:35:59.089Z,9.97
2023-05-24T19:38:26.411Z,10.02
2023-05-24T19:40:53.283Z,10.11
2023-05-24T19:43:20.175Z,10.13
2023-05-24T19:45:48.291Z,10.02
2023-05-24T19:48:15.217Z,10.11
2023-05-24T19:50:42.230Z,9.91
2023-05-24T19:53:09.246Z,9.94
2023-05-24T19:55:36.789Z,9.83
2023-05-24T19:58:03.835Z,9.71
2023-05-24T20:00:30.813Z,9.75
2023-05-24T20:02:57.863Z,9.88
2023-05-24T20:05:45.298Z,9.85
2023-05-24T20:08:12.391Z,9.83
2023-05-24T20:10:40.272Z,9.22
2023-05-24T20:13:07.218Z,9.38
2023-05-24T20:15:34.152Z,9.50
2023-05-24T20:18:01.172Z,9.71
2023-05-24T20:20:28.249Z,9.40
2023-05-24T20:22:55.200Z,9.56
2023-05-24T20:25:22.115Z,9.60
2023-05-24T20:27:49.091Z,9.32
2023-05-24T20:30:18.079Z,9.34
2023-05-24T20:32:45.475Z,9.47
2023-05-24T20:35:12.694Z,9.15
2023-05-24T20:37:40.668Z,9.10
2023-05-24T20:40:08.360Z,9.09
2023-05-24T20:42:35.936Z,9.11
2023-05-24T20:45:03.775Z,8.97
2023-05-24T20:47:30.897Z,9.08
2023-05-24T20:49:57.959Z,8.99
2023-05-24T20:52:24.855Z,8.93
2023-05-24T20:54:51.846Z,8.64
2023-05-24T20:57:18.817Z,8.87
2023-05-24T20:59:45.861Z,8.83
2023-05-24T21:02:12.821Z,8.99
2023-05-24T21:04:39.803Z,8.82
2023-05-24T21:07:08.104Z,8.97
2023-05-24T21:09:35.126Z,8.91
2023-05-24T21:12:02.560Z,9.04
2023-05-24T21:14:30.721Z,8.97
2023-05-24T21:16:57.647Z,8.87
2023-05-24T21:19:24.576Z,8.99
2023-05-24T21:21:51.564Z,8.83
2023-05-24T21:24:18.566Z,8.88
2023-05-24T21:26:45.529Z,8.87
2023-05-24T21:29:13.415Z,8.64
2023-05-24T21:31:41.397Z,8.87
2023-05-24T21:34:08.377Z,8.86
2023-05-24T21:36:35.347Z,8.77
2023-05-24T21:39:07.726Z,8.64
2023-05-24T21:41:35.397Z,8.79
2023-05-24T21:44:02.325Z,8.70
2023-05-24T21:46:29.530Z,8.52
2023-05-24T21:48:57.556Z,8.44
2023-05-24T21:51:24.544Z,8.55
2023-05-24T21:53:52.045Z,8.48
2023-05-24T21:56:19.097Z,8.70
2023-05-24T21:58:46.054Z,8.73
2023-05-24T22:01:12.983Z,8.69
2023-05-24T22:03:40.284Z,8.53
2023-05-24T22:06:07.432Z,8.53
2023-05-24T22:08:34.436Z,8.47
2023-05-24T22:11:01.750Z,8.20
2023-05-24T22:13:28.730Z,8.36
2023-05-24T22:15:55.816Z,8.08
2023-05-24T22:18:23.038Z,7.95
2023-05-24T22:20:50.901Z,8.05
2023-05-24T22:23:17.969Z,8.15
2023-05-24T22:25:45.206Z,8.12
2023-05-24T22:28:12.220Z,7.95
2023-05-24T22:30:39.249Z,8.21
2023-05-24T22:33:06.375Z,8.12
2023-05-24T22:35:33.425Z,7.93
2023-05-24T22:38:00.338Z,7.98
2023-05-24T22:40:27.291Z,7.74
2023-05-24T22:42:54.223Z,7.81
2023-05-24T22:45:22.818Z,7.82
2023-05-24T22:47:50.472Z,7.97
2023-05-24T22:50:17.507Z,7.87
2023-05-24T22:52:46.602Z,8.07
2023-05-24T22:55:13.583Z,7.93
2023-05-24T22:57:40.793Z,7.84
2023-05-24T23:00:08.539Z,7.90
2023-05-24T23:02:36.630Z,7.53
2023-05-24T23:05:04.302Z,7.72
2023-05-24T23:07:31.354Z,7.52
2023-05-24T23:09:59.985Z,7.53
2023-05-24T23:12:26.973Z,7.34
2023-05-24T23:14:54.408Z,7.23
2023-05-24T23:17:22.508Z,7.06
2023-05-24T23:19:50.613Z,7.03
2023-05-24T23:22:20.401Z,7.09
2023-05-24T23:24:50.124Z,7.20
2023-05-24T23:27:17.375Z,7.24
2023-05-24T23:29:44.587Z,7.28
2023-05-24T23:32:11.903Z,7.26
2023-05-24T23:34:38.806Z,7.25
2023-05-24T23:37:06.330Z,7.38
2023-05-24T23:39:33.315Z,7.22
2023-05-24T23:42:00.229Z,7.01
2023-05-24T23:44:27.121Z,7.28
2023-05-24T23:46:54.219Z,7.22
2023-05-24T23:49:21.198Z,7.22
2023-05-24T23:51:48.162Z,7.30
2023-05-24T23:54:15.297Z,6.84
2023-05-24T23:56:42.977Z,6.06
2023-05-24T23:59:09.949Z,6.78
